createdAt,value
2017-10-24T00:01:16.675Z,97576.47
2017-10-24T00:02:53.253Z,97512.30
2017-10-24T00:04:31.055Z,97384.63
2017-10-24T00:06:07.472Z,97268.97
2017-10-24T00:07:45.251Z,97240.66
2017-10-24T00:09:23.619Z,97304.78
2017-10-24T00:11:00.771Z,97349.30
2017-10-24T00:12:37.997Z,97446.27
2017-10-24T00:14:14.777Z,97465.91
2017-10-24T00:15:51.351Z,97445.91
2017-10-24T00:17:27.740Z,97389.92
2017-10-24T00:19:05.911Z,97338.81
2017-10-24T00:20:42.658Z,97275.64
2017-10-24T00:22:19.100Z,97272.06
2017-10-24T00:23:55.448Z,97265.50
2017-10-24T00:25:31.800Z,97206.59
2017-10-24T00:27:08.932Z,97158.15
2017-10-24T00:28:45.853Z,97129.36
2017-10-24T00:30:23.999Z,97125.41
2017-10-24T00:32:00.805Z,97075.34
2017-10-24T00:33:38.006Z,96999.53
2017-10-24T00:35:14.520Z,96981.13
2017-10-24T00:36:52.435Z,96923.50
2017-10-24T00:38:29.617Z,96883.39
2017-10-24T00:40:07.283Z,96883.99
2017-10-24T00:41:44.799Z,96875.69
2017-10-24T00:43:22.751Z,96839.41
2017-10-24T00:44:59.200Z,96856.12
2017-10-24T00:46:36.500Z,96852.60
2017-10-24T00:48:13.367Z,96850.09
2017-10-24T00:49:50.455Z,96878.87
2017-10-24T00:51:27.236Z,96885.75
2017-10-24T00:53:04.193Z,96872.62
2017-10-24T00:54:40.762Z,96875.29
2017-10-24T00:56:17.575Z,96854.03
2017-10-24T00:57:55.804Z,96857.03
2017-10-24T00:59:35.674Z,96874.87
2017-10-24T01:01:12.334Z,96893.70
2017-10-24T01:02:49.846Z,96861.77
2017-10-24T01:04:26.188Z,96856.60
2017-10-24T01:06:03.015Z,96839.66
2017-10-24T01:07:40.001Z,96846.20
2017-10-24T01:09:17.009Z,96898.43
2017-10-24T01:10:54.439Z,96881.11
2017-10-24T01:12:32.448Z,96880.20
2017-10-24T01:14:10.294Z,96905.86
2017-10-24T01:15:46.984Z,96925.47
2017-10-24T01:17:24.470Z,96941.58
2017-10-24T01:19:00.955Z,96905.95
2017-10-24T01:20:37.533Z,96887.62
2017-10-24T01:22:15.862Z,96891.94
2017-10-24T01:23:53.221Z,96871.52
2017-10-24T01:25:30.584Z,96875.10
2017-10-24T01:27:07.767Z,96868.55
2017-10-24T01:28:46.174Z,96875.47
2017-10-24T01:30:25.654Z,96871.58
2017-10-24T01:32:07.638Z,96885.11
2017-10-24T01:33:53.940Z,96866.30
2017-10-24T01:35:30.710Z,96858.94
2017-10-24T01:37:07.436Z,96876.44
2017-10-24T01:38:45.034Z,96885.53
2017-10-24T01:40:21.677Z,96862.36
2017-10-24T01:41:59.737Z,96864.06
2017-10-24T01:43:37.707Z,96875.52
2017-10-24T01:45:15.945Z,96877.70
2017-10-24T01:46:52.814Z,96886.45
2017-10-24T01:48:30.518Z,96892.05
2017-10-24T01:50:08.341Z,96884.80
2017-10-24T01:51:44.937Z,96863.84
2017-10-24T01:53:21.527Z,96868.13
2017-10-24T01:54:58.489Z,96869.88
2017-10-24T01:56:35.068Z,96887.35
2017-10-24T01:58:11.622Z,96949.21
2017-10-24T01:59:48.737Z,97041.27
2017-10-24T02:01:27.677Z,97092.64
2017-10-24T02:03:04.198Z,97131.89
2017-10-24T02:04:41.028Z,97165.03
2017-10-24T02:06:17.566Z,97194.83
2017-10-24T02:07:55.077Z,97323.55
2017-10-24T02:09:31.880Z,97372.02
2017-10-24T02:11:08.457Z,97421.48
2017-10-24T02:12:44.917Z,97529.88
2017-10-24T02:14:21.995Z,97565.64
2017-10-24T02:15:59.114Z,97584.48
2017-10-24T02:17:37.361Z,97622.16
2017-10-24T02:19:14.063Z,97625.69
2017-10-24T02:20:51.409Z,97617.83
2017-10-24T02:22:28.087Z,97614.78
2017-10-24T02:24:04.761Z,97644.01
2017-10-24T02:25:41.706Z,97610.86
2017-10-24T02:27:20.368Z,97726.05
2017-10-24T02:28:56.736Z,97910.91
2017-10-24T02:30:33.569Z,97974.03
2017-10-24T02:32:11.005Z,97963.89
2017-10-24T02:33:48.545Z,97936.70
2017-10-24T02:35:24.888Z,97910.91
2017-10-24T02:37:01.868Z,97900.44
2017-10-24T02:38:39.376Z,97932.84
2017-10-24T02:40:16.073Z,97946.41
2017-10-24T02:41:52.408Z,97906.03
2017-10-24T02:43:28.841Z,97890.81
2017-10-24T02:45:06.216Z,97900.06
2017-10-24T02:46:43.917Z,97920.66
2017-10-24T02:48:20.447Z,97936.44
2017-10-24T02:49:56.957Z,97914.50
2017-10-24T02:51:33.523Z,97915.46
2017-10-24T02:53:10.266Z,97858.90
2017-10-24T02:54:46.629Z,97906.28
2017-10-24T02:56:23.934Z,97819.45
2017-10-24T02:58:00.270Z,97734.14
2017-10-24T02:59:36.947Z,97786.33
2017-10-24T03:01:13.646Z,97857.34
2017-10-24T03:02:50.748Z,97916.52
2017-10-24T03:04:27.075Z,97931.38
2017-10-24T03:06:05.423Z,97947.58
2017-10-24T03:07:41.796Z,97910.30
2017-10-24T03:09:19.037Z,97857.34
2017-10-24T03:10:56.308Z,97825.72
2017-10-24T03:12:32.947Z,97769.77
2017-10-24T03:14:10.085Z,97770.30
2017-10-24T03:15:47.004Z,97792.64
2017-10-24T03:17:23.492Z,97840.72
2017-10-24T03:19:00.986Z,97832.84
2017-10-24T03:20:38.380Z,97785.58
2017-10-24T03:22:14.897Z,97725.98
2017-10-24T03:23:52.280Z,97712.45
2017-10-24T03:25:28.989Z,97690.96
2017-10-24T03:27:05.395Z,97691.45
2017-10-24T03:28:41.782Z,97627.08
2017-10-24T03:30:20.668Z,97603.95
2017-10-24T03:31:57.666Z,97584.73
2017-10-24T03:33:34.106Z,97574.56
2017-10-24T03:35:10.497Z,97589.17
2017-10-24T03:36:46.978Z,97598.42
2017-10-24T03:38:24.602Z,97573.34
2017-10-24T03:40:01.967Z,97549.45
2017-10-24T03:41:38.877Z,97586.92
2017-10-24T03:43:15.218Z,97597.08
2017-10-24T03:44:53.260Z,97547.26
2017-10-24T03:46:29.800Z,97570.44
2017-10-24T03:48:06.295Z,97591.95
2017-10-24T03:49:43.041Z,97572.97
2017-10-24T03:51:21.099Z,97546.30
2017-10-24T03:52:57.890Z,97541.11
2017-10-24T03:54:35.192Z,97578.69
2017-10-24T03:56:12.296Z,97640.02
2017-10-24T03:57:49.949Z,97675.38
2017-10-24T03:59:27.969Z,97706.97
2017-10-24T04:01:04.691Z,97743.81
2017-10-24T04:02:41.131Z,97760.05
2017-10-24T04:04:17.774Z,97760.42
2017-10-24T04:05:55.288Z,97759.14
2017-10-24T04:07:32.057Z,97735.14
2017-10-24T04:09:08.389Z,97693.52
2017-10-24T04:10:45.784Z,97683.03
2017-10-24T04:12:23.105Z,97534.30
2017-10-24T04:13:59.457Z,97350.27
2017-10-24T04:15:36.200Z,97279.63
2017-10-24T04:17:13.340Z,97401.56
2017-10-24T04:18:49.645Z,97583.86
2017-10-24T04:20:27.597Z,97665.83
2017-10-24T04:22:03.950Z,97671.13
2017-10-24T04:23:40.681Z,97650.99
2017-10-24T04:25:16.996Z,97634.47
2017-10-24T04:26:53.870Z,97635.31
2017-10-24T04:28:30.251Z,97637.08
2017-10-24T04:30:07.879Z,97637.66
2017-10-24T04:31:44.654Z,97620.42
2017-10-24T04:33:21.182Z,97638.91
2017-10-24T04:34:57.577Z,97616.52
2017-10-24T04:36:34.315Z,97636.66
2017-10-24T04:38:11.903Z,97665.56
2017-10-24T04:39:49.551Z,97722.17
2017-10-24T04:41:26.131Z,97751.95
2017-10-24T04:43:03.587Z,97776.48
2017-10-24T04:44:39.944Z,97790.80
2017-10-24T04:46:17.011Z,97800.98
2017-10-24T04:47:53.337Z,97768.08
2017-10-24T04:49:30.132Z,97783.98
2017-10-24T04:51:06.438Z,97772.09
2017-10-24T04:52:44.095Z,97749.33
2017-10-24T04:54:20.631Z,97720.03
2017-10-24T04:55:57.162Z,97733.52
2017-10-24T04:57:33.474Z,97692.77
2017-10-24T04:59:09.884Z,97662.71
2017-10-24T05:00:46.825Z,97648.22
2017-10-24T05:02:23.604Z,97664.38
2017-10-24T05:03:59.895Z,97694.59
2017-10-24T05:07:07.427Z,97730.14
2017-10-24T05:08:46.668Z,97629.47
2017-10-24T05:10:23.393Z,97640.06
2017-10-24T05:12:00.830Z,97760.84
2017-10-24T05:13:37.367Z,97756.98
2017-10-24T05:15:18.198Z,97828.36
2017-10-24T05:16:55.033Z,97775.80
2017-10-24T05:18:31.419Z,97699.66
2017-10-24T05:20:07.982Z,97706.15
2017-10-24T05:21:46.820Z,97798.23
2017-10-24T05:23:24.024Z,97749.69
2017-10-24T05:25:00.389Z,97641.45
2017-10-24T05:26:36.771Z,97537.08
2017-10-24T05:28:13.503Z,97494.95
2017-10-24T05:29:49.790Z,97541.46
2017-10-24T05:31:26.349Z,97611.03
2017-10-24T05:33:02.854Z,97620.58
2017-10-24T05:34:39.676Z,97456.55
2017-10-24T05:36:16.656Z,97268.45
2017-10-24T05:37:54.003Z,97247.88
2017-10-24T05:39:30.774Z,97304.66
2017-10-24T05:41:07.106Z,97330.42
2017-10-24T05:42:43.587Z,97344.69
2017-10-24T05:44:19.981Z,97443.97
2017-10-24T05:45:57.296Z,97575.56
2017-10-24T05:47:33.973Z,97752.73
2017-10-24T05:49:11.113Z,97823.73
2017-10-24T05:50:47.388Z,97875.84
2017-10-24T05:52:23.699Z,97994.66
2017-10-24T05:54:00.356Z,98052.56
2017-10-24T05:55:36.789Z,98076.61
2017-10-24T05:57:13.230Z,98074.55
2017-10-24T05:58:50.273Z,98078.01
2017-10-24T06:00:29.416Z,98076.32
2017-10-24T06:02:05.773Z,98059.64
2017-10-24T06:03:42.166Z,97981.05
2017-10-24T06:05:19.169Z,97939.92
2017-10-24T06:06:55.864Z,97923.23
2017-10-24T06:08:32.190Z,97886.89
2017-10-24T06:10:08.546Z,97908.85
2017-10-24T06:11:44.949Z,97946.56
2017-10-24T06:13:22.503Z,97958.51
2017-10-24T06:14:58.881Z,97964.05
2017-10-24T06:16:36.230Z,97967.59
2017-10-24T06:18:12.609Z,97956.31
2017-10-24T06:19:50.111Z,97943.13
2017-10-24T06:21:28.417Z,97941.07
2017-10-24T06:23:04.749Z,97991.47
2017-10-24T06:24:41.189Z,97989.14
2017-10-24T06:26:17.527Z,98014.70
2017-10-24T06:27:53.885Z,98060.37
2017-10-24T06:29:30.290Z,98089.72
2017-10-24T06:31:07.065Z,98087.95
2017-10-24T06:32:44.980Z,98107.28
2017-10-24T06:34:22.686Z,98101.59
2017-10-24T06:36:01.925Z,98104.22
2017-10-24T06:40:34.118Z,97956.37
2017-10-24T06:42:10.507Z,97893.67
2017-10-24T06:43:47.159Z,97896.83
2017-10-24T06:45:25.714Z,97893.67
2017-10-24T06:47:03.371Z,97876.05
2017-10-24T06:48:39.981Z,97928.89
2017-10-24T06:50:17.566Z,97974.48
2017-10-24T06:51:54.873Z,98018.72
2017-10-24T06:53:31.641Z,98040.72
2017-10-24T06:55:08.649Z,98060.80
2017-10-24T06:56:45.010Z,98066.16
2017-10-24T06:58:22.418Z,98048.61
2017-10-24T06:59:59.140Z,98025.71
2017-10-24T07:01:37.038Z,97885.52
2017-10-24T07:03:13.585Z,97922.34
2017-10-24T07:04:50.631Z,98013.14
2017-10-24T07:06:27.404Z,98085.11
2017-10-24T07:08:04.571Z,98111.89
2017-10-24T07:09:40.988Z,98111.41
2017-10-24T07:11:18.221Z,98146.94
2017-10-24T07:12:55.001Z,98190.01
2017-10-24T07:14:31.496Z,98229.55
2017-10-24T07:16:08.545Z,98254.91
2017-10-24T07:17:45.207Z,98286.98
2017-10-24T07:19:23.349Z,98211.06
2017-10-24T07:20:59.724Z,98238.83
2017-10-24T07:22:36.313Z,98221.31
2017-10-24T07:24:13.446Z,98219.44
2017-10-24T07:25:50.120Z,98197.09
2017-10-24T07:27:26.510Z,98191.78
2017-10-24T07:29:03.706Z,98167.72
2017-10-24T07:30:40.280Z,98143.55
2017-10-24T07:32:17.386Z,98140.02
2017-10-24T07:33:53.861Z,98148.33
2017-10-24T07:35:30.228Z,98152.30
2017-10-24T07:37:06.650Z,98159.34
2017-10-24T07:38:43.486Z,98202.78
2017-10-24T07:40:21.676Z,98228.34
2017-10-24T07:41:58.085Z,98258.98
2017-10-24T07:43:34.522Z,98291.59
2017-10-24T07:45:11.423Z,98234.91
2017-10-24T07:46:47.942Z,98250.27
2017-10-24T07:48:25.066Z,98232.74
2017-10-24T07:50:02.224Z,98309.25
2017-10-24T07:51:38.917Z,98362.37
2017-10-24T07:53:16.184Z,98379.98
2017-10-24T07:54:53.929Z,98148.48
2017-10-24T07:56:30.304Z,98199.44
2017-10-24T07:58:07.168Z,98331.23
2017-10-24T07:59:43.603Z,98371.99
2017-10-24T08:01:21.645Z,98393.55
2017-10-24T08:02:58.251Z,98338.75
2017-10-24T08:04:35.685Z,98199.39
2017-10-24T08:06:12.204Z,98318.93
2017-10-24T08:07:49.373Z,98418.23
2017-10-24T08:09:26.547Z,98467.05
2017-10-24T08:11:03.282Z,98449.88
2017-10-24T08:12:39.633Z,98415.16
2017-10-24T08:14:16.042Z,98519.97
2017-10-24T08:15:54.169Z,98569.59
2017-10-24T08:17:31.855Z,98607.47
2017-10-24T08:19:09.061Z,98645.81
2017-10-24T08:20:45.541Z,98642.59
2017-10-24T08:22:22.651Z,98640.48
2017-10-24T08:23:59.329Z,98637.45
2017-10-24T08:25:36.516Z,98675.36
2017-10-24T08:27:13.713Z,98625.99
2017-10-24T08:28:50.939Z,98612.84
2017-10-24T08:30:29.944Z,98693.92
2017-10-24T08:32:07.121Z,98643.60
2017-10-24T08:33:43.621Z,98703.15
2017-10-24T08:35:20.547Z,98731.22
2017-10-24T08:36:57.204Z,98745.34
2017-10-24T08:38:36.436Z,98714.48
2017-10-24T08:40:13.097Z,98678.86
2017-10-24T08:41:49.628Z,98618.89
2017-10-24T08:43:27.380Z,98601.81
2017-10-24T08:45:06.007Z,98584.64
2017-10-24T08:46:42.942Z,98535.39
2017-10-24T08:48:20.364Z,98574.96
2017-10-24T08:49:57.881Z,98609.73
2017-10-24T08:51:34.591Z,98622.88
2017-10-24T08:53:11.890Z,98586.95
2017-10-24T08:54:49.378Z,98635.34
2017-10-24T08:56:27.568Z,98651.61
2017-10-24T08:58:04.410Z,98680.30
2017-10-24T08:59:41.001Z,98749.37
2017-10-24T09:01:26.228Z,98764.81
2017-10-24T09:03:03.099Z,98711.92
2017-10-24T09:04:40.584Z,98704.87
2017-10-24T09:06:17.713Z,98703.15
2017-10-24T09:07:54.188Z,98697.82
2017-10-24T09:09:37.541Z,98726.09
2017-10-24T09:11:29.021Z,98722.11
2017-10-24T09:13:07.765Z,98731.36
2017-10-24T09:14:45.268Z,98721.70
2017-10-24T09:16:35.047Z,98707.13
2017-10-24T09:18:12.521Z,98682.94
2017-10-24T09:19:55.411Z,98747.72
2017-10-24T09:21:39.659Z,98730.50
2017-10-24T09:23:16.105Z,98654.30
2017-10-24T09:24:54.023Z,98748.55
2017-10-24T09:26:37.653Z,98794.82
2017-10-24T09:28:14.022Z,98876.50
2017-10-24T09:29:51.236Z,98923.55
2017-10-24T09:31:28.988Z,98966.84
2017-10-24T09:33:05.511Z,99026.44
2017-10-24T09:34:41.972Z,99050.64
2017-10-24T09:36:23.631Z,99016.20
2017-10-24T09:38:00.722Z,99045.34
2017-10-24T09:39:37.837Z,99078.05
2017-10-24T09:41:18.286Z,99099.25
2017-10-24T09:42:56.439Z,99077.52
2017-10-24T09:44:34.418Z,99041.40
2017-10-24T09:46:12.215Z,99045.39
2017-10-24T09:47:49.136Z,99009.19
2017-10-24T09:49:26.535Z,99079.83
2017-10-24T09:51:19.829Z,99156.73
2017-10-24T09:53:00.266Z,99206.63
2017-10-24T09:54:42.721Z,99251.77
2017-10-24T09:56:32.222Z,99202.16
2017-10-24T09:58:11.517Z,99261.09
2017-10-24T09:59:49.108Z,99355.50
2017-10-24T10:01:26.260Z,99410.92
2017-10-24T10:03:02.940Z,99359.50
2017-10-24T10:04:40.077Z,99357.41
2017-10-24T10:06:26.642Z,99434.39
2017-10-24T10:08:04.228Z,99530.45
2017-10-24T10:09:41.883Z,99409.14
2017-10-24T10:11:22.200Z,99298.22
2017-10-24T10:13:00.159Z,99366.23
2017-10-24T10:14:37.402Z,99414.84
2017-10-24T10:16:14.302Z,99485.85
2017-10-24T10:17:51.614Z,99508.76
2017-10-24T10:19:28.280Z,99494.55
2017-10-24T10:21:04.984Z,99465.73
2017-10-24T10:22:42.406Z,99440.65
2017-10-24T10:24:20.017Z,99426.92
2017-10-24T10:25:57.831Z,99398.94
2017-10-24T10:27:35.538Z,99377.30
2017-10-24T10:29:12.436Z,99266.40
2017-10-24T10:30:50.440Z,99232.90
2017-10-24T10:32:27.202Z,99220.88
2017-10-24T10:34:03.924Z,99209.32
2017-10-24T10:35:40.785Z,99292.09
2017-10-24T10:37:18.092Z,99322.11
2017-10-24T10:41:01.114Z,99305.30
2017-10-24T10:42:37.723Z,99288.89
2017-10-24T10:44:14.973Z,99292.09
2017-10-24T10:45:54.981Z,99286.70
2017-10-24T10:47:32.703Z,99295.53
2017-10-24T10:49:09.948Z,99304.81
2017-10-24T10:50:47.280Z,99311.02
2017-10-24T10:52:24.159Z,99360.97
2017-10-24T10:54:01.185Z,99392.77
2017-10-24T10:55:38.077Z,99418.09
2017-10-24T10:57:14.709Z,99366.19
2017-10-24T10:58:52.170Z,99390.56
2017-10-24T11:00:30.666Z,99438.31
2017-10-24T11:02:07.860Z,99475.64
2017-10-24T11:03:44.526Z,99556.06
2017-10-24T11:05:21.166Z,99589.33
2017-10-24T11:06:58.458Z,99573.38
2017-10-24T11:08:35.051Z,99600.84
2017-10-24T11:10:11.688Z,99605.67
2017-10-24T11:11:48.233Z,99571.11
2017-10-24T11:13:25.149Z,99556.50
2017-10-24T11:15:02.211Z,99479.11
2017-10-24T11:16:39.876Z,99454.82
2017-10-24T11:18:16.985Z,99469.30
2017-10-24T11:19:54.556Z,99455.16
2017-10-24T11:21:31.134Z,99460.13
2017-10-24T11:23:08.513Z,99426.92
2017-10-24T11:24:45.842Z,99368.02
2017-10-24T11:26:22.992Z,99332.27
2017-10-24T11:27:59.859Z,99350.77
2017-10-24T11:29:36.477Z,99322.02
2017-10-24T11:31:13.335Z,99332.27
2017-10-24T11:32:51.241Z,99343.30
2017-10-24T11:34:28.109Z,99298.22
2017-10-24T11:36:05.623Z,99312.25
2017-10-24T11:37:42.853Z,99275.69
2017-10-24T11:39:20.636Z,99320.77
2017-10-24T11:40:58.194Z,99407.94
2017-10-24T11:42:35.969Z,99462.38
2017-10-24T11:44:12.641Z,99477.77
2017-10-24T11:45:51.033Z,99519.28
2017-10-24T11:47:27.965Z,99565.36
2017-10-24T11:49:05.240Z,99568.49
2017-10-24T11:52:19.248Z,99575.50
2017-10-24T11:53:55.785Z,99611.50
2017-10-24T11:55:32.503Z,99655.66
2017-10-24T11:57:09.290Z,99694.21
2017-10-24T11:58:45.946Z,99706.61
2017-10-24T12:00:23.104Z,99700.39
2017-10-24T12:02:00.568Z,99717.19
2017-10-24T12:03:38.123Z,99724.77
2017-10-24T12:05:14.922Z,99639.30
2017-10-24T12:06:51.419Z,99676.02
2017-10-24T12:08:27.830Z,99688.50
2017-10-24T12:10:04.565Z,99711.05
2017-10-24T12:11:40.953Z,99714.18
2017-10-24T12:13:17.359Z,99677.32
2017-10-24T12:14:54.269Z,99638.78
2017-10-24T12:16:31.602Z,99643.81
2017-10-24T12:18:08.368Z,99602.11
2017-10-24T12:19:44.837Z,99546.72
2017-10-24T12:21:21.294Z,99575.50
2017-10-24T12:22:58.289Z,99545.37
2017-10-24T12:24:34.740Z,99525.89
2017-10-24T12:26:12.068Z,99531.71
2017-10-24T12:27:48.500Z,99502.98
2017-10-24T12:29:25.345Z,99519.76
2017-10-24T12:31:02.300Z,99550.28
2017-10-24T12:32:39.029Z,99542.36
2017-10-24T12:34:16.295Z,99573.63
2017-10-24T12:35:54.251Z,99598.59
2017-10-24T12:37:30.943Z,99608.76
2017-10-24T12:39:08.053Z,99625.59
2017-10-24T12:40:44.841Z,99620.20
2017-10-24T12:42:22.639Z,99636.52
2017-10-24T12:43:59.445Z,99613.67
2017-10-24T12:45:37.122Z,99695.16
2017-10-24T12:47:13.867Z,99749.57
2017-10-24T12:48:50.955Z,99762.02
2017-10-24T12:50:28.072Z,99691.95
2017-10-24T12:52:06.238Z,99598.15
2017-10-24T12:53:43.821Z,99742.55
2017-10-24T12:56:55.520Z,99848.41
2017-10-24T12:58:33.097Z,99852.85
2017-10-24T13:00:09.792Z,99848.80
2017-10-24T13:01:47.069Z,99845.83
2017-10-24T13:03:24.704Z,99851.55
2017-10-24T13:05:01.923Z,99762.36
2017-10-24T13:06:38.839Z,99692.38
2017-10-24T13:09:48.640Z,99622.42
2017-10-24T13:11:26.045Z,99611.45
2017-10-24T13:13:03.390Z,99670.23
2017-10-24T13:14:40.396Z,99637.87
2017-10-24T13:16:17.184Z,99479.50
2017-10-24T13:17:55.294Z,99509.97
2017-10-24T13:19:31.867Z,99532.19
2017-10-24T13:21:09.809Z,99513.58
2017-10-24T13:22:47.276Z,99472.81
2017-10-24T13:24:23.721Z,99443.17
2017-10-24T13:26:01.226Z,99467.16
2017-10-24T13:27:40.005Z,99483.02
2017-10-24T13:29:16.387Z,99511.31
2017-10-24T13:30:53.312Z,99484.80
2017-10-24T13:32:30.104Z,99521.45
2017-10-24T13:34:06.847Z,99556.84
2017-10-24T13:35:43.237Z,99523.67
2017-10-24T13:37:20.088Z,99561.75
2017-10-24T13:38:57.533Z,99571.45
2017-10-24T13:40:34.575Z,99664.13
2017-10-24T13:42:11.508Z,99760.66
2017-10-24T13:43:48.086Z,99779.13
2017-10-24T13:45:28.799Z,99770.77
2017-10-24T13:47:06.257Z,99729.20
2017-10-24T13:48:42.801Z,99804.47
2017-10-24T13:50:19.843Z,99819.54
2017-10-24T13:51:56.672Z,99839.08
2017-10-24T13:53:33.854Z,99820.89
2017-10-24T13:55:10.245Z,99882.03
2017-10-24T13:56:47.913Z,99838.65
2017-10-24T13:58:26.034Z,99912.66
2017-10-24T14:00:03.920Z,99936.15
2017-10-24T14:01:41.630Z,99894.89
2017-10-24T14:03:18.353Z,99829.77
2017-10-24T14:04:58.952Z,99845.75
2017-10-24T14:08:42.545Z,99692.82
2017-10-24T14:10:49.137Z,99632.55
2017-10-24T14:12:26.396Z,99599.37
2017-10-24T14:14:02.880Z,99480.38
2017-10-24T14:15:39.986Z,99566.63
2017-10-24T14:17:16.787Z,99644.52
2017-10-24T14:18:54.249Z,99616.59
2017-10-24T14:20:32.249Z,99683.94
2017-10-24T14:22:10.330Z,99674.19
2017-10-24T14:23:47.098Z,99607.41
2017-10-24T14:25:25.002Z,99618.90
2017-10-24T14:27:03.288Z,99635.25
2017-10-24T14:28:40.033Z,99607.37
2017-10-24T14:30:19.505Z,99459.55
2017-10-24T14:31:56.621Z,99447.22
2017-10-24T14:33:33.428Z,99547.15
2017-10-24T14:35:13.110Z,99543.63
2017-10-24T14:36:50.539Z,99602.11
2017-10-24T14:38:28.341Z,99662.31
2017-10-24T14:40:05.519Z,99582.06
2017-10-24T14:41:42.918Z,99639.56
2017-10-24T14:43:21.508Z,99569.23
2017-10-24T14:44:59.254Z,99403.75
2017-10-24T14:46:36.218Z,99449.05
2017-10-24T14:48:13.146Z,99569.77
2017-10-24T14:49:50.937Z,99675.98
2017-10-24T14:51:28.892Z,99700.82
2017-10-24T14:53:05.999Z,99727.41
2017-10-24T14:54:43.314Z,99786.35
2017-10-24T14:56:20.309Z,99810.73
2017-10-24T14:57:57.103Z,99804.55
2017-10-24T14:59:34.089Z,99755.36
2017-10-24T15:01:10.903Z,99798.38
2017-10-24T15:02:47.451Z,99814.35
2017-10-24T15:04:24.039Z,99792.94
2017-10-24T15:06:00.496Z,99728.77
2017-10-24T15:07:37.040Z,99686.20
2017-10-24T15:09:13.785Z,99604.23
2017-10-24T15:10:50.791Z,99518.48
2017-10-24T15:12:27.583Z,99627.77
2017-10-24T15:14:05.146Z,99687.47
2017-10-24T15:15:42.791Z,99539.11
2017-10-24T15:17:19.955Z,99433.52
2017-10-24T15:18:57.767Z,99487.38
2017-10-24T15:20:35.738Z,99547.58
2017-10-24T15:22:13.783Z,99490.58
2017-10-24T15:23:50.677Z,99471.12
2017-10-24T15:25:27.887Z,99544.55
2017-10-24T15:27:05.843Z,99589.19
2017-10-24T15:28:44.599Z,99576.33
2017-10-24T15:30:23.132Z,99525.02
2017-10-24T15:32:03.058Z,99575.11
2017-10-24T15:33:40.419Z,99535.63
2017-10-24T15:35:16.936Z,99450.69
2017-10-24T15:36:54.198Z,99458.30
2017-10-24T15:38:30.987Z,99412.27
2017-10-24T15:40:07.856Z,99383.52
2017-10-24T15:41:44.658Z,99452.47
2017-10-24T15:43:22.398Z,99476.81
2017-10-24T15:44:59.993Z,99492.29
2017-10-24T15:46:37.124Z,99524.15
2017-10-24T15:48:14.746Z,99541.41
2017-10-24T15:49:51.574Z,99450.30
2017-10-24T15:51:31.309Z,99306.21
2017-10-24T15:53:08.274Z,99284.97
2017-10-24T15:54:45.019Z,99338.39
2017-10-24T15:56:22.186Z,99335.34
2017-10-24T15:57:59.371Z,99407.94
2017-10-24T15:59:36.507Z,99456.08
2017-10-24T16:01:15.741Z,99467.08
2017-10-24T16:02:52.602Z,99453.43
2017-10-24T16:04:29.541Z,99449.82
2017-10-24T16:06:07.165Z,99473.34
2017-10-24T16:07:44.104Z,99465.30
2017-10-24T16:09:22.249Z,99485.72
2017-10-24T16:11:00.643Z,99473.25
2017-10-24T16:12:38.723Z,99457.81
2017-10-24T16:14:16.902Z,99387.34
2017-10-24T16:15:53.946Z,99456.99
2017-10-24T16:17:31.725Z,99498.55
2017-10-24T16:19:08.835Z,99502.89
2017-10-24T16:20:48.655Z,99560.50
2017-10-24T16:22:27.575Z,99579.50
2017-10-24T16:24:05.251Z,99595.50
2017-10-24T16:25:43.728Z,99641.16
2017-10-24T16:27:22.706Z,99653.05
2017-10-24T16:29:02.842Z,99591.02
2017-10-24T16:30:41.557Z,99638.91
2017-10-24T16:32:18.302Z,99726.70
2017-10-24T16:33:57.107Z,99746.95
2017-10-24T16:35:34.548Z,99701.73
2017-10-24T16:37:11.818Z,99764.33
2017-10-24T16:38:49.476Z,99744.22
2017-10-24T16:40:26.901Z,99687.68
2017-10-24T16:42:03.622Z,99774.11
2017-10-24T16:43:40.275Z,99676.16
2017-10-24T16:45:20.298Z,99727.11
2017-10-24T16:46:58.140Z,99754.14
2017-10-24T16:48:35.008Z,99713.78
2017-10-24T16:50:11.914Z,99743.91
2017-10-24T16:51:51.103Z,99734.59
2017-10-24T16:53:29.157Z,99727.55
2017-10-24T16:55:06.964Z,99725.84
2017-10-24T16:56:47.755Z,99653.09
2017-10-24T16:58:25.874Z,99725.45
2017-10-24T17:00:03.981Z,99799.80
2017-10-24T17:01:41.898Z,99802.06
2017-10-24T17:03:20.537Z,99784.78
2017-10-24T17:06:42.011Z,99708.00
2017-10-24T17:08:23.860Z,99662.44
2017-10-24T17:10:02.798Z,99648.22
2017-10-24T17:11:40.595Z,99556.15
2017-10-24T17:13:20.800Z,99602.23
2017-10-24T17:14:59.559Z,99693.03
2017-10-24T17:16:40.262Z,99669.14
2017-10-24T17:18:22.666Z,99654.00
2017-10-24T17:20:02.208Z,99550.45
2017-10-24T17:21:44.890Z,99558.41
2017-10-24T17:23:26.166Z,99538.93
2017-10-24T17:25:05.684Z,99586.23
2017-10-24T17:26:44.779Z,99576.07
2017-10-24T17:28:25.458Z,99585.45
2017-10-24T17:30:06.019Z,99612.02
2017-10-24T17:31:48.629Z,99692.16
2017-10-24T17:33:32.065Z,99719.62
2017-10-24T17:35:13.219Z,99669.97
2017-10-24T17:36:53.748Z,99647.38
2017-10-24T17:38:35.656Z,99590.72
2017-10-24T17:40:18.140Z,99646.99
2017-10-24T17:42:00.153Z,99696.16
2017-10-24T17:43:39.404Z,99705.44
2017-10-24T17:45:21.752Z,99741.34
2017-10-24T17:47:04.663Z,99765.23
2017-10-24T17:48:46.175Z,99764.41
2017-10-24T17:50:26.728Z,99737.29
2017-10-24T17:52:06.558Z,99746.25
2017-10-24T17:53:47.222Z,99763.11
2017-10-24T17:55:26.722Z,99750.69
2017-10-24T17:57:07.629Z,99713.48
2017-10-24T17:58:49.468Z,99576.19
2017-10-24T18:00:33.185Z,99596.11
2017-10-24T18:02:15.428Z,99671.41
2017-10-24T18:03:54.989Z,99675.41
2017-10-24T18:05:34.815Z,99715.70
2017-10-24T18:07:14.825Z,99753.39
2017-10-24T18:08:58.864Z,99754.66
2017-10-24T18:10:38.760Z,99751.56
2017-10-24T18:12:20.303Z,99755.48
2017-10-24T18:14:01.987Z,99764.89
2017-10-24T18:15:42.676Z,99728.10
2017-10-24T18:17:27.358Z,99758.31
2017-10-24T18:19:12.991Z,99756.05
2017-10-24T18:20:54.591Z,99800.41
2017-10-24T18:22:37.845Z,99798.15
2017-10-24T18:24:23.303Z,99815.44
2017-10-24T18:26:10.524Z,99841.17
2017-10-24T18:27:54.860Z,99838.55
2017-10-24T18:29:37.713Z,99764.84
2017-10-24T18:31:20.974Z,99609.41
2017-10-24T18:33:03.347Z,99667.84
2017-10-24T18:34:47.756Z,99757.00
2017-10-24T18:36:31.146Z,99759.49
2017-10-24T18:40:05.360Z,99798.62
2017-10-24T18:41:50.835Z,99690.89
2017-10-24T18:43:34.776Z,99682.06
2017-10-24T18:45:30.544Z,99704.64
2017-10-24T18:47:18.918Z,99556.36
2017-10-24T18:49:04.982Z,99666.53
2017-10-24T18:50:50.950Z,99723.31
2017-10-24T18:52:37.199Z,99766.15
2017-10-24T18:54:28.423Z,99647.03
2017-10-24T18:56:10.305Z,99532.45
2017-10-24T18:57:55.925Z,99617.85
2017-10-24T18:59:38.617Z,99706.47
2017-10-24T19:01:26.066Z,99692.73
2017-10-24T19:03:11.120Z,99767.16
2017-10-24T19:04:55.055Z,99651.03
2017-10-24T19:06:35.509Z,99682.41
2017-10-24T19:08:18.506Z,99684.32
2017-10-24T19:10:01.501Z,99598.80
2017-10-24T19:13:31.358Z,99557.66
2017-10-24T19:15:14.345Z,99518.37
2017-10-24T19:17:00.147Z,99404.68
2017-10-24T19:18:47.130Z,99466.99
2017-10-24T19:20:31.200Z,99573.15
2017-10-24T19:22:15.275Z,99643.99
2017-10-24T19:24:04.217Z,99481.55
2017-10-24T19:25:49.463Z,99542.19
2017-10-24T19:27:30.584Z,99543.06
2017-10-24T19:29:14.515Z,99594.85
2017-10-24T19:31:00.307Z,99639.24